イルクーツク の空港の天気 - METARとTAF

イルクーツク国際空港 ( UIII / IKT ) - ロシア イルクーツク
飛行場実況気象(Metar)
観測時間10/23 21:00 IRKT (10/23 13:00 UTC)
風向・風速北西 7m/s
視程10km以上
天気現象
全天の4割程度の雲 雲底高度 640m
気温5℃
湿度75%
気圧1022hPa
METARUIII 231300Z 31007MPS 9999 SCT021CB 05/01 Q1022 R30/CLRD60 NOSIG RMK QFE721/0962
過去の天気等 Google飛行場航空写真 Wunderground天気予報

過去48時間のMETAR

飛行場予報(TAF)
発表時間: 10/23 19:00 IRKT (10/23 11:00 UTC)
予報対象時間: 23日20時 IRKT ~ 24日20時 IRKT
風向・風速西北西 7m/s
視程10km以上
全天の8割程度の積乱雲 雲底高度 370m
23日20時 IRKT ~ 24日1時 IRKT に一時的に
風向・風速北西 15m/s
視程2,000m
天気現象しゅう雪雨
24日1時 IRKT ~ 24日11時 IRKT に一時的に
風向・風速不定 1m/s
視程300m
天気現象氷霧
全天を覆う雲 鉛直視程 60m
24日12時 IRKT ~ 24日14時 IRKT に徐々に
風向・風速南南東 3m/s
なし
TAF COR UIII 231100Z 2312/2412 30007MPS 9999 BKN012CB
TEMPO 2312/2317 32015MPS 2000 SHSNRA
TEMPO 2317/2403 VRB01MPS 0300 FZFG VV002
BECMG 2404/2406 16003MPS NSC